APN106 ENTO-EPPO
Flight info
| Callsign | APN106 |
|---|---|
| Flight time | 1h 24m |
| Altitude | 37000 |
| Route | BOMGU Z132 LATKU L996 KELIN DCT POKEN DCT VAVUN L996 DENKO |
| Aircraft | A320/M-SDE3FGHIRWY/LB1 |
Departure
| Time | 2026-05-09 03:34 |
|---|---|
| Airport | Sandefjord Airport, Torp (ENTO) |
Arrival
| Time | 2026-05-09 04:58 |
|---|---|
| Airport | Poznań-Ławica Airport (EPPO) |
| Time | Latitude | Longitude | Altitude | Speed | Heading |
|---|---|---|---|---|---|
| 2026-05-09 03:19 | 59.17960 | 10.25411 | 0 ft | 0 kts | 270° |
| 2026-05-09 03:23 | 59.17960 | 10.25436 | 195 ft | 4 kts | 269° |
| 2026-05-09 03:24 | 59.17960 | 10.25488 | 214 ft | 4 kts | 273° |
| 2026-05-09 03:24 | 59.17957 | 10.25540 | 284 ft | 3 kts | 279° |
| 2026-05-09 03:24 | 59.17957 | 10.25549 | 284 ft | 0 kts | 279° |
| 2026-05-09 03:27 | 59.17963 | 10.25532 | 285 ft | 1 kts | 317° |
| 2026-05-09 03:27 | 59.17995 | 10.25530 | 278 ft | 7 kts | 1° |
| 2026-05-09 03:27 | 59.18041 | 10.25532 | 278 ft | 6 kts | 1° |
| 2026-05-09 03:27 | 59.18076 | 10.25534 | 278 ft | 4 kts | 1° |
| 2026-05-09 03:28 | 59.18108 | 10.25559 | 278 ft | 6 kts | 38° |
| 2026-05-09 03:28 | 59.18138 | 10.25611 | 276 ft | 8 kts | 41° |
| 2026-05-09 03:28 | 59.18166 | 10.25669 | 278 ft | 3 kts | 47° |
| 2026-05-09 03:28 | 59.18186 | 10.25712 | 278 ft | 10 kts | 50° |
| 2026-05-09 03:29 | 59.18238 | 10.25830 | 278 ft | 11 kts | 49° |
| 2026-05-09 03:29 | 59.18273 | 10.25951 | 278 ft | 9 kts | 80° |
| 2026-05-09 03:29 | 59.18276 | 10.26088 | 278 ft | 14 kts | 89° |
| 2026-05-09 03:29 | 59.18324 | 10.26243 | 278 ft | 16 kts | 6° |
| 2026-05-09 03:30 | 59.18440 | 10.26241 | 278 ft | 17 kts | 359° |
| 2026-05-09 03:30 | 59.18566 | 10.26238 | 278 ft | 19 kts | 359° |
| 2026-05-09 03:30 | 59.18699 | 10.26235 | 278 ft | 20 kts | 359° |
| 2026-05-09 03:30 | 59.18842 | 10.26231 | 278 ft | 21 kts | 359° |
| 2026-05-09 03:31 | 59.18994 | 10.26230 | 278 ft | 22 kts | 359° |
| 2026-05-09 03:31 | 59.19153 | 10.26226 | 278 ft | 24 kts | 359° |
| 2026-05-09 03:31 | 59.19321 | 10.26221 | 278 ft | 25 kts | 359° |
| 2026-05-09 03:31 | 59.19471 | 10.26217 | 278 ft | 21 kts | 359° |
| 2026-05-09 03:32 | 59.19620 | 10.26212 | 278 ft | 22 kts | 359° |
| 2026-05-09 03:32 | 59.19731 | 10.26204 | 278 ft | 13 kts | 343° |
| 2026-05-09 03:32 | 59.19796 | 10.26089 | 278 ft | 12 kts | 312° |
| 2026-05-09 03:32 | 59.19849 | 10.25967 | 278 ft | 11 kts | 309° |
| 2026-05-09 03:33 | 59.19843 | 10.25853 | 277 ft | 9 kts | 206° |
| 2026-05-09 03:33 | 59.19785 | 10.25845 | 278 ft | 10 kts | 180° |
| 2026-05-09 03:33 | 59.19525 | 10.25850 | 279 ft | 74 kts | 179° |
| 2026-05-09 03:33 | 59.18799 | 10.25865 | 278 ft | 132 kts | 179° |
| 2026-05-09 03:34 | 59.17736 | 10.25882 | 285 ft | 176 kts | 180° |
| 2026-05-09 03:34 | 59.16436 | 10.25901 | 601 ft | 195 kts | 180° |
| 2026-05-09 03:34 | 59.15042 | 10.25908 | 1094 ft | 205 kts | 180° |
| 2026-05-09 03:34 | 59.13608 | 10.25915 | 1751 ft | 204 kts | 180° |
| 2026-05-09 03:35 | 59.12179 | 10.25954 | 2327 ft | 212 kts | 180° |
| 2026-05-09 03:35 | 59.10658 | 10.26009 | 2817 ft | 224 kts | 177° |
| 2026-05-09 03:35 | 59.09174 | 10.26920 | 3427 ft | 230 kts | 138° |
| 2026-05-09 03:35 | 59.08286 | 10.29482 | 3880 ft | 238 kts | 99° |
| 2026-05-09 03:36 | 59.08220 | 10.32761 | 4397 ft | 248 kts | 82° |
| 2026-05-09 03:36 | 59.08459 | 10.36099 | 5244 ft | 249 kts | 78° |
| 2026-05-09 03:36 | 59.08771 | 10.39371 | 6107 ft | 251 kts | 78° |
| 2026-05-09 03:36 | 59.09092 | 10.42726 | 6921 ft | 254 kts | 80° |
| 2026-05-09 03:37 | 59.09393 | 10.46128 | 7710 ft | 257 kts | 82° |
| 2026-05-09 03:37 | 59.09646 | 10.49604 | 8445 ft | 262 kts | 89° |
| 2026-05-09 03:37 | 59.09403 | 10.53104 | 9135 ft | 264 kts | 110° |
| 2026-05-09 03:37 | 59.08509 | 10.56233 | 9821 ft | 267 kts | 131° |
| 2026-05-09 03:38 | 59.07077 | 10.58558 | 10449 ft | 274 kts | 151° |
| 2026-05-09 03:38 | 59.05269 | 10.60141 | 10655 ft | 297 kts | 158° |
| 2026-05-09 03:38 | 59.03311 | 10.61709 | 10853 ft | 319 kts | 159° |
| 2026-05-09 03:38 | 59.01216 | 10.63370 | 11297 ft | 330 kts | 159° |
| 2026-05-09 03:39 | 58.99072 | 10.65074 | 11939 ft | 335 kts | 159° |
| 2026-05-09 03:39 | 58.96907 | 10.66801 | 12587 ft | 339 kts | 159° |
| 2026-05-09 03:39 | 58.94713 | 10.68559 | 13228 ft | 343 kts | 159° |
| 2026-05-09 03:39 | 58.92583 | 10.70686 | 13836 ft | 348 kts | 148° |
| 2026-05-09 03:40 | 58.90693 | 10.73678 | 14444 ft | 354 kts | 136° |
| 2026-05-09 03:40 | 58.89139 | 10.77426 | 15037 ft | 361 kts | 124° |
| 2026-05-09 03:40 | 58.87929 | 10.81632 | 15611 ft | 365 kts | 120° |
| 2026-05-09 03:40 | 58.86729 | 10.85969 | 16176 ft | 368 kts | 120° |
| 2026-05-09 03:41 | 58.85516 | 10.90341 | 16742 ft | 371 kts | 120° |
| 2026-05-09 03:41 | 58.84285 | 10.94753 | 17281 ft | 375 kts | 120° |
| 2026-05-09 03:41 | 58.83039 | 10.99200 | 17823 ft | 378 kts | 120° |
| 2026-05-09 03:41 | 58.81785 | 11.03672 | 18348 ft | 381 kts | 120° |
| 2026-05-09 03:42 | 58.80515 | 11.08187 | 18873 ft | 384 kts | 120° |
| 2026-05-09 03:42 | 58.79235 | 11.12735 | 19395 ft | 387 kts | 120° |
| 2026-05-09 03:42 | 58.77948 | 11.17297 | 19917 ft | 390 kts | 120° |
| 2026-05-09 03:42 | 58.76645 | 11.21902 | 20425 ft | 392 kts | 121° |
| 2026-05-09 03:43 | 58.75348 | 11.26475 | 20929 ft | 395 kts | 121° |
| 2026-05-09 03:43 | 58.74025 | 11.31126 | 21408 ft | 398 kts | 121° |
| 2026-05-09 03:43 | 58.72690 | 11.35817 | 21875 ft | 400 kts | 121° |
| 2026-05-09 03:43 | 58.71348 | 11.40524 | 22324 ft | 403 kts | 121° |
| 2026-05-09 03:44 | 58.69994 | 11.45268 | 22753 ft | 406 kts | 121° |
| 2026-05-09 03:44 | 58.68636 | 11.50032 | 23183 ft | 408 kts | 121° |
| 2026-05-09 03:44 | 58.67293 | 11.54857 | 23614 ft | 410 kts | 119° |
| 2026-05-09 03:44 | 58.65972 | 11.59712 | 24083 ft | 410 kts | 119° |
| 2026-05-09 03:45 | 58.64658 | 11.64574 | 24479 ft | 412 kts | 119° |
| 2026-05-09 03:45 | 58.63347 | 11.69397 | 24840 ft | 414 kts | 119° |
| 2026-05-09 03:45 | 58.62006 | 11.74289 | 25199 ft | 416 kts | 119° |
| 2026-05-09 03:45 | 58.60651 | 11.79207 | 25547 ft | 418 kts | 120° |
| 2026-05-09 03:46 | 58.59285 | 11.84132 | 25871 ft | 420 kts | 121° |
| 2026-05-09 03:46 | 58.57653 | 11.88768 | 26188 ft | 420 kts | 131° |
| 2026-05-09 03:46 | 58.55594 | 11.92713 | 26492 ft | 420 kts | 142° |
| 2026-05-09 03:46 | 58.53174 | 11.95842 | 26795 ft | 420 kts | 153° |
| 2026-05-09 03:47 | 58.50486 | 11.98034 | 27094 ft | 420 kts | 164° |
| 2026-05-09 03:47 | 58.47632 | 11.99214 | 27398 ft | 421 kts | 173° |
| 2026-05-09 03:47 | 58.44759 | 11.99963 | 27682 ft | 423 kts | 173° |
| 2026-05-09 03:47 | 58.41843 | 12.00735 | 27961 ft | 425 kts | 173° |
| 2026-05-09 03:48 | 58.38911 | 12.01521 | 28231 ft | 426 kts | 172° |
| 2026-05-09 03:48 | 58.35965 | 12.02314 | 28488 ft | 428 kts | 172° |
| 2026-05-09 03:48 | 58.33014 | 12.03106 | 28746 ft | 430 kts | 172° |
| 2026-05-09 03:48 | 58.30045 | 12.03901 | 28991 ft | 431 kts | 172° |
| 2026-05-09 03:49 | 58.27064 | 12.04698 | 29222 ft | 433 kts | 172° |
| 2026-05-09 03:49 | 58.24116 | 12.05882 | 29439 ft | 435 kts | 164° |
| 2026-05-09 03:49 | 58.21272 | 12.07902 | 29653 ft | 438 kts | 158° |
| 2026-05-09 03:49 | 58.18474 | 12.10186 | 29860 ft | 439 kts | 158° |
| 2026-05-09 03:50 | 58.15697 | 12.12432 | 30101 ft | 439 kts | 158° |
| 2026-05-09 03:50 | 58.12890 | 12.14681 | 30408 ft | 438 kts | 158° |
| 2026-05-09 03:50 | 58.10083 | 12.16919 | 30710 ft | 437 kts | 158° |
| 2026-05-09 03:50 | 58.07289 | 12.19146 | 31007 ft | 436 kts | 158° |
| 2026-05-09 03:51 | 58.04496 | 12.21376 | 31289 ft | 435 kts | 158° |
| 2026-05-09 03:51 | 58.01712 | 12.23600 | 31561 ft | 434 kts | 158° |
| 2026-05-09 03:51 | 57.98932 | 12.25821 | 31865 ft | 433 kts | 158° |
| 2026-05-09 03:51 | 57.96163 | 12.28034 | 32124 ft | 433 kts | 158° |
| 2026-05-09 03:52 | 57.93393 | 12.30247 | 32398 ft | 432 kts | 158° |
| 2026-05-09 03:52 | 57.90671 | 12.32411 | 32667 ft | 431 kts | 158° |
| 2026-05-09 03:52 | 57.87909 | 12.34596 | 32941 ft | 430 kts | 158° |
| 2026-05-09 03:52 | 57.85161 | 12.36764 | 33220 ft | 428 kts | 158° |
| 2026-05-09 03:53 | 57.82414 | 12.38928 | 33487 ft | 427 kts | 158° |
| 2026-05-09 03:53 | 57.79673 | 12.41086 | 33737 ft | 427 kts | 158° |
| 2026-05-09 03:53 | 57.76942 | 12.43232 | 33999 ft | 426 kts | 158° |
| 2026-05-09 03:53 | 57.74210 | 12.45378 | 34253 ft | 425 kts | 158° |
| 2026-05-09 03:54 | 57.71488 | 12.47512 | 34493 ft | 425 kts | 158° |
| 2026-05-09 03:54 | 57.68762 | 12.49647 | 34733 ft | 424 kts | 158° |
| 2026-05-09 03:54 | 57.66079 | 12.51745 | 34950 ft | 424 kts | 158° |
| 2026-05-09 03:54 | 57.63356 | 12.53870 | 35176 ft | 423 kts | 157° |
| 2026-05-09 03:55 | 57.60642 | 12.55982 | 35391 ft | 423 kts | 157° |
| 2026-05-09 03:55 | 57.57925 | 12.58093 | 35600 ft | 422 kts | 157° |
| 2026-05-09 03:55 | 57.55215 | 12.60194 | 35788 ft | 422 kts | 157° |
| 2026-05-09 03:55 | 57.52499 | 12.62300 | 35969 ft | 422 kts | 157° |
| 2026-05-09 03:56 | 57.49786 | 12.64404 | 36149 ft | 422 kts | 158° |
| 2026-05-09 03:56 | 57.47080 | 12.66497 | 36336 ft | 422 kts | 158° |
| 2026-05-09 03:56 | 57.44367 | 12.68587 | 36489 ft | 422 kts | 158° |
| 2026-05-09 03:56 | 57.41695 | 12.70642 | 36625 ft | 422 kts | 158° |
| 2026-05-09 03:57 | 57.38977 | 12.72735 | 36753 ft | 423 kts | 158° |
| 2026-05-09 03:57 | 57.36256 | 12.74828 | 36886 ft | 423 kts | 158° |
| 2026-05-09 03:57 | 57.33537 | 12.76911 | 37018 ft | 424 kts | 158° |
| 2026-05-09 03:57 | 57.30811 | 12.78996 | 37159 ft | 423 kts | 158° |
| 2026-05-09 03:58 | 57.28093 | 12.81076 | 37280 ft | 424 kts | 158° |
| 2026-05-09 03:58 | 57.25357 | 12.83171 | 37303 ft | 426 kts | 158° |
| 2026-05-09 03:58 | 57.19910 | 12.87319 | 37301 ft | 427 kts | 158° |
| 2026-05-09 03:59 | 57.14418 | 12.91482 | 37301 ft | 427 kts | 158° |
| 2026-05-09 03:59 | 57.08925 | 12.95633 | 37301 ft | 427 kts | 158° |
| 2026-05-09 04:00 | 57.03432 | 12.99773 | 37302 ft | 427 kts | 158° |
| 2026-05-09 04:00 | 56.97930 | 13.03897 | 37304 ft | 427 kts | 158° |
| 2026-05-09 04:01 | 56.92465 | 13.07982 | 37308 ft | 427 kts | 159° |
| 2026-05-09 04:01 | 56.86960 | 13.12096 | 37309 ft | 427 kts | 158° |
| 2026-05-09 04:02 | 56.81460 | 13.16212 | 37309 ft | 427 kts | 158° |
| 2026-05-09 04:02 | 56.75954 | 13.20303 | 37310 ft | 427 kts | 159° |
| 2026-05-09 04:03 | 56.70478 | 13.24335 | 37310 ft | 427 kts | 159° |
| 2026-05-09 04:03 | 56.64967 | 13.28395 | 37310 ft | 427 kts | 159° |
| 2026-05-09 04:04 | 56.59454 | 13.32446 | 37311 ft | 427 kts | 159° |
| 2026-05-09 04:04 | 56.53951 | 13.36483 | 37348 ft | 425 kts | 158° |
| 2026-05-09 04:05 | 56.48479 | 13.40497 | 37366 ft | 423 kts | 159° |
| 2026-05-09 04:05 | 56.43058 | 13.44435 | 37352 ft | 422 kts | 159° |
| 2026-05-09 04:06 | 56.37612 | 13.48371 | 37348 ft | 421 kts | 159° |
| 2026-05-09 04:06 | 56.32174 | 13.52292 | 37348 ft | 421 kts | 159° |
| 2026-05-09 04:07 | 56.26740 | 13.56206 | 37343 ft | 420 kts | 159° |
| 2026-05-09 04:07 | 56.21312 | 13.60121 | 37342 ft | 420 kts | 159° |
| 2026-05-09 04:08 | 56.15920 | 13.64002 | 37342 ft | 420 kts | 159° |
| 2026-05-09 04:08 | 56.10485 | 13.67892 | 37342 ft | 420 kts | 159° |
| 2026-05-09 04:09 | 56.05052 | 13.71754 | 37341 ft | 420 kts | 159° |
| 2026-05-09 04:09 | 55.99616 | 13.75599 | 37342 ft | 420 kts | 159° |
| 2026-05-09 04:10 | 55.94218 | 13.79428 | 37342 ft | 420 kts | 159° |
| 2026-05-09 04:10 | 55.88782 | 13.83271 | 37340 ft | 420 kts | 159° |
| 2026-05-09 04:11 | 55.83344 | 13.87101 | 37338 ft | 420 kts | 159° |
| 2026-05-09 04:11 | 55.77900 | 13.90924 | 37337 ft | 420 kts | 159° |
| 2026-05-09 04:12 | 55.72464 | 13.94729 | 37335 ft | 420 kts | 159° |
| 2026-05-09 04:12 | 55.67073 | 13.98488 | 37333 ft | 419 kts | 159° |
| 2026-05-09 04:13 | 55.61635 | 14.02269 | 37332 ft | 419 kts | 159° |
| 2026-05-09 04:13 | 55.56205 | 14.06038 | 37333 ft | 420 kts | 159° |
| 2026-05-09 04:14 | 55.50763 | 14.09792 | 37350 ft | 419 kts | 159° |
| 2026-05-09 04:14 | 55.45315 | 14.13543 | 37299 ft | 421 kts | 159° |
| 2026-05-09 04:15 | 55.39886 | 14.17290 | 37289 ft | 423 kts | 159° |
| 2026-05-09 04:15 | 55.34403 | 14.21054 | 37287 ft | 423 kts | 159° |
| 2026-05-09 04:16 | 55.28909 | 14.24804 | 37288 ft | 424 kts | 159° |
| 2026-05-09 04:16 | 55.23406 | 14.28542 | 37292 ft | 424 kts | 159° |
| 2026-05-09 04:17 | 55.17934 | 14.32245 | 37296 ft | 425 kts | 159° |
| 2026-05-09 04:17 | 55.12420 | 14.35982 | 37300 ft | 425 kts | 159° |
| 2026-05-09 04:18 | 55.06907 | 14.39708 | 37305 ft | 425 kts | 159° |
| 2026-05-09 04:18 | 55.01386 | 14.43431 | 37309 ft | 426 kts | 159° |
| 2026-05-09 04:19 | 54.95893 | 14.47120 | 37310 ft | 425 kts | 159° |
| 2026-05-09 04:19 | 54.90369 | 14.50817 | 37311 ft | 425 kts | 159° |
| 2026-05-09 04:20 | 54.84843 | 14.54503 | 37313 ft | 426 kts | 159° |
| 2026-05-09 04:20 | 54.79300 | 14.58117 | 37314 ft | 426 kts | 161° |
| 2026-05-09 04:21 | 54.73729 | 14.61400 | 37314 ft | 425 kts | 162° |
| 2026-05-09 04:22 | 54.65305 | 14.66225 | 37314 ft | 425 kts | 162° |
| 2026-05-09 04:22 | 54.59700 | 14.69500 | 37313 ft | 425 kts | 161° |
| 2026-05-09 04:23 | 54.54094 | 14.72790 | 37312 ft | 425 kts | 161° |
| 2026-05-09 04:23 | 54.48535 | 14.76046 | 37311 ft | 425 kts | 161° |
| 2026-05-09 04:24 | 54.42935 | 14.79300 | 37310 ft | 425 kts | 162° |
| 2026-05-09 04:24 | 54.37327 | 14.82544 | 37252 ft | 427 kts | 162° |
| 2026-05-09 04:25 | 54.31686 | 14.85795 | 37221 ft | 429 kts | 162° |
| 2026-05-09 04:25 | 54.26034 | 14.89041 | 37217 ft | 432 kts | 162° |
| 2026-05-09 04:26 | 54.20315 | 14.92318 | 37220 ft | 435 kts | 162° |
| 2026-05-09 04:26 | 54.14575 | 14.95618 | 37222 ft | 436 kts | 162° |
| 2026-05-09 04:27 | 54.08820 | 14.98913 | 37227 ft | 437 kts | 162° |
| 2026-05-09 04:27 | 54.03051 | 15.02196 | 37235 ft | 437 kts | 162° |
| 2026-05-09 04:28 | 53.97274 | 15.05469 | 37241 ft | 438 kts | 162° |
| 2026-05-09 04:28 | 53.91533 | 15.08720 | 37247 ft | 438 kts | 162° |
| 2026-05-09 04:29 | 53.85748 | 15.11986 | 37250 ft | 438 kts | 162° |
| 2026-05-09 04:29 | 53.79954 | 15.15248 | 37252 ft | 438 kts | 162° |
| 2026-05-09 04:30 | 53.74161 | 15.18488 | 37254 ft | 439 kts | 162° |
| 2026-05-09 04:30 | 53.68406 | 15.21706 | 37256 ft | 439 kts | 162° |
| 2026-05-09 04:31 | 53.62615 | 15.24939 | 37260 ft | 438 kts | 163° |
| 2026-05-09 04:31 | 53.56825 | 15.28149 | 37261 ft | 438 kts | 163° |
| 2026-05-09 04:32 | 53.51038 | 15.31360 | 37262 ft | 438 kts | 162° |
| 2026-05-09 04:32 | 53.45343 | 15.34988 | 37261 ft | 439 kts | 156° |
| 2026-05-09 04:33 | 53.39839 | 15.39235 | 37259 ft | 438 kts | 156° |
| 2026-05-09 04:33 | 53.37069 | 15.41366 | 36855 ft | 438 kts | 156° |
| 2026-05-09 04:33 | 53.34305 | 15.43485 | 36134 ft | 437 kts | 156° |
| 2026-05-09 04:33 | 53.31545 | 15.45589 | 35027 ft | 436 kts | 156° |
| 2026-05-09 04:34 | 53.28775 | 15.47697 | 33759 ft | 438 kts | 156° |
| 2026-05-09 04:34 | 53.25996 | 15.49817 | 32428 ft | 441 kts | 156° |
| 2026-05-09 04:34 | 53.23197 | 15.51953 | 31086 ft | 442 kts | 157° |
| 2026-05-09 04:34 | 53.20413 | 15.54079 | 30004 ft | 438 kts | 157° |
| 2026-05-09 04:35 | 53.17694 | 15.56154 | 28963 ft | 433 kts | 157° |
| 2026-05-09 04:35 | 53.14968 | 15.58231 | 27899 ft | 429 kts | 156° |
| 2026-05-09 04:35 | 53.12271 | 15.60282 | 26869 ft | 425 kts | 156° |
| 2026-05-09 04:35 | 53.09593 | 15.62311 | 25858 ft | 420 kts | 156° |
| 2026-05-09 04:36 | 53.06949 | 15.64307 | 24872 ft | 415 kts | 156° |
| 2026-05-09 04:36 | 53.04334 | 15.66275 | 23937 ft | 409 kts | 156° |
| 2026-05-09 04:36 | 53.01757 | 15.68213 | 23032 ft | 403 kts | 156° |
| 2026-05-09 04:36 | 52.99221 | 15.70120 | 22138 ft | 398 kts | 156° |
| 2026-05-09 04:37 | 52.96713 | 15.72006 | 21284 ft | 393 kts | 156° |
| 2026-05-09 04:37 | 52.94275 | 15.73837 | 20431 ft | 387 kts | 156° |
| 2026-05-09 04:37 | 52.91837 | 15.75663 | 19576 ft | 383 kts | 156° |
| 2026-05-09 04:37 | 52.89424 | 15.77468 | 18728 ft | 378 kts | 156° |
| 2026-05-09 04:38 | 52.87054 | 15.79263 | 17885 ft | 373 kts | 153° |
| 2026-05-09 04:38 | 52.84912 | 15.81624 | 17429 ft | 370 kts | 139° |
| 2026-05-09 04:38 | 52.83135 | 15.84725 | 17173 ft | 371 kts | 127° |
| 2026-05-09 04:38 | 52.81838 | 15.88375 | 16916 ft | 370 kts | 114° |
| 2026-05-09 04:39 | 52.81081 | 15.92427 | 16632 ft | 369 kts | 100° |
| 2026-05-09 04:39 | 52.80768 | 15.96621 | 16336 ft | 368 kts | 97° |
| 2026-05-09 04:39 | 52.80484 | 16.00805 | 16045 ft | 365 kts | 97° |
| 2026-05-09 04:39 | 52.80201 | 16.04913 | 15749 ft | 363 kts | 97° |
| 2026-05-09 04:40 | 52.79911 | 16.09035 | 15455 ft | 360 kts | 98° |
| 2026-05-09 04:40 | 52.79619 | 16.13134 | 15165 ft | 357 kts | 98° |
| 2026-05-09 04:40 | 52.79326 | 16.17198 | 14878 ft | 354 kts | 98° |
| 2026-05-09 04:40 | 52.79036 | 16.21216 | 14594 ft | 351 kts | 98° |
| 2026-05-09 04:41 | 52.78749 | 16.25208 | 14312 ft | 348 kts | 98° |
| 2026-05-09 04:41 | 52.78464 | 16.29155 | 14030 ft | 345 kts | 98° |
| 2026-05-09 04:41 | 52.78181 | 16.33076 | 13753 ft | 342 kts | 98° |
| 2026-05-09 04:41 | 52.77900 | 16.36950 | 13477 ft | 339 kts | 98° |
| 2026-05-09 04:42 | 52.77624 | 16.40747 | 13211 ft | 336 kts | 98° |
| 2026-05-09 04:42 | 52.77373 | 16.44188 | 12970 ft | 334 kts | 97° |
| 2026-05-09 04:42 | 52.77099 | 16.47975 | 12704 ft | 332 kts | 97° |
| 2026-05-09 04:42 | 52.76828 | 16.51748 | 12438 ft | 330 kts | 97° |
| 2026-05-09 04:43 | 52.76557 | 16.55492 | 12184 ft | 328 kts | 97° |
| 2026-05-09 04:43 | 52.76282 | 16.59227 | 11913 ft | 327 kts | 96° |
| 2026-05-09 04:43 | 52.76006 | 16.62940 | 11651 ft | 326 kts | 96° |
| 2026-05-09 04:43 | 52.75729 | 16.66601 | 11394 ft | 325 kts | 96° |
| 2026-05-09 04:44 | 52.75450 | 16.70298 | 11133 ft | 325 kts | 96° |
| 2026-05-09 04:44 | 52.75172 | 16.74000 | 10872 ft | 324 kts | 96° |
| 2026-05-09 04:44 | 52.74899 | 16.77623 | 10701 ft | 312 kts | 96° |
| 2026-05-09 04:44 | 52.74634 | 16.81105 | 10573 ft | 300 kts | 96° |
| 2026-05-09 04:45 | 52.74379 | 16.84452 | 10449 ft | 288 kts | 97° |
| 2026-05-09 04:45 | 52.74047 | 16.87648 | 10267 ft | 279 kts | 107° |
| 2026-05-09 04:45 | 52.73212 | 16.90485 | 10148 ft | 274 kts | 125° |
| 2026-05-09 04:45 | 52.71911 | 16.92768 | 10008 ft | 274 kts | 142° |
| 2026-05-09 04:46 | 52.70282 | 16.94286 | 9775 ft | 273 kts | 158° |
| 2026-05-09 04:46 | 52.68524 | 16.95444 | 9537 ft | 272 kts | 158° |
| 2026-05-09 04:46 | 52.66770 | 16.96602 | 9292 ft | 271 kts | 159° |
| 2026-05-09 04:46 | 52.65015 | 16.97761 | 9056 ft | 271 kts | 159° |
| 2026-05-09 04:47 | 52.63254 | 16.98858 | 8820 ft | 271 kts | 161° |
| 2026-05-09 04:47 | 52.61476 | 16.99905 | 8586 ft | 271 kts | 162° |
| 2026-05-09 04:47 | 52.59693 | 17.00937 | 8356 ft | 273 kts | 162° |
| 2026-05-09 04:47 | 52.57900 | 17.01973 | 8119 ft | 273 kts | 162° |
| 2026-05-09 04:48 | 52.56105 | 17.03015 | 7883 ft | 275 kts | 162° |
| 2026-05-09 04:48 | 52.54323 | 17.04050 | 7655 ft | 276 kts | 162° |
| 2026-05-09 04:48 | 52.52514 | 17.05100 | 7412 ft | 277 kts | 161° |
| 2026-05-09 04:48 | 52.50714 | 17.06148 | 7225 ft | 269 kts | 161° |
| 2026-05-09 04:49 | 52.48987 | 17.07160 | 7097 ft | 259 kts | 160° |
| 2026-05-09 04:49 | 52.47447 | 17.08549 | 6941 ft | 249 kts | 139° |
| 2026-05-09 04:49 | 52.46359 | 17.10682 | 6817 ft | 242 kts | 117° |
| 2026-05-09 04:49 | 52.45751 | 17.13247 | 6669 ft | 242 kts | 106° |
| 2026-05-09 04:50 | 52.45238 | 17.15881 | 6468 ft | 242 kts | 107° |
| 2026-05-09 04:50 | 52.44723 | 17.18500 | 6288 ft | 241 kts | 107° |
| 2026-05-09 04:50 | 52.44207 | 17.21116 | 6092 ft | 241 kts | 107° |
| 2026-05-09 04:50 | 52.43699 | 17.23688 | 5900 ft | 240 kts | 107° |
| 2026-05-09 04:51 | 52.43126 | 17.26248 | 5699 ft | 238 kts | 120° |
| 2026-05-09 04:51 | 52.41971 | 17.28081 | 5514 ft | 233 kts | 155° |
| 2026-05-09 04:51 | 52.40407 | 17.28559 | 5322 ft | 229 kts | 190° |
| 2026-05-09 04:51 | 52.38877 | 17.27843 | 5224 ft | 230 kts | 200° |
| 2026-05-09 04:52 | 52.37353 | 17.27029 | 5217 ft | 231 kts | 199° |
| 2026-05-09 04:52 | 52.35850 | 17.26139 | 5206 ft | 225 kts | 211° |
| 2026-05-09 04:52 | 52.34789 | 17.24430 | 5103 ft | 210 kts | 245° |
| 2026-05-09 04:52 | 52.34460 | 17.22210 | 4951 ft | 198 kts | 275° |
| 2026-05-09 04:53 | 52.34766 | 17.20080 | 4743 ft | 195 kts | 289° |
| 2026-05-09 04:53 | 52.35190 | 17.17975 | 4495 ft | 194 kts | 288° |
| 2026-05-09 04:53 | 52.35608 | 17.15879 | 4238 ft | 194 kts | 288° |
| 2026-05-09 04:53 | 52.36020 | 17.13793 | 4005 ft | 190 kts | 288° |
| 2026-05-09 04:54 | 52.36421 | 17.11756 | 3748 ft | 186 kts | 287° |
| 2026-05-09 04:54 | 52.36813 | 17.09763 | 3497 ft | 182 kts | 286° |
| 2026-05-09 04:54 | 52.37194 | 17.07821 | 3250 ft | 177 kts | 285° |
| 2026-05-09 04:54 | 52.37568 | 17.05911 | 3018 ft | 176 kts | 285° |
| 2026-05-09 04:55 | 52.37937 | 17.04032 | 2780 ft | 171 kts | 285° |
| 2026-05-09 04:55 | 52.38297 | 17.02189 | 2558 ft | 170 kts | 285° |
| 2026-05-09 04:55 | 52.38653 | 17.00370 | 2329 ft | 168 kts | 287° |
| 2026-05-09 04:55 | 52.39003 | 16.98579 | 2113 ft | 163 kts | 287° |
| 2026-05-09 04:56 | 52.39336 | 16.96873 | 1898 ft | 152 kts | 287° |
| 2026-05-09 04:56 | 52.39646 | 16.95284 | 1712 ft | 144 kts | 287° |
| 2026-05-09 04:56 | 52.39946 | 16.93742 | 1518 ft | 141 kts | 287° |
| 2026-05-09 04:56 | 52.40242 | 16.92219 | 1343 ft | 140 kts | 287° |
| 2026-05-09 04:57 | 52.40537 | 16.90706 | 1155 ft | 139 kts | 288° |
| 2026-05-09 04:57 | 52.40830 | 16.89198 | 972 ft | 139 kts | 288° |
| 2026-05-09 04:57 | 52.41122 | 16.87692 | 794 ft | 144 kts | 288° |
| 2026-05-09 04:57 | 52.41428 | 16.86116 | 598 ft | 144 kts | 288° |
| 2026-05-09 04:58 | 52.41722 | 16.84608 | 409 ft | 135 kts | 288° |
| 2026-05-09 04:58 | 52.41989 | 16.83222 | 288 ft | 111 kts | 288° |
| 2026-05-09 04:58 | 52.42132 | 16.82490 | 288 ft | 24 kts | 288° |
| 2026-05-09 04:58 | 52.42152 | 16.82390 | 293 ft | 10 kts | 288° |
| 2026-05-09 04:59 | 52.42186 | 16.82203 | 290 ft | 24 kts | 285° |
| 2026-05-09 04:59 | 52.42247 | 16.81895 | 293 ft | 30 kts | 288° |
| 2026-05-09 04:59 | 52.42303 | 16.81555 | 291 ft | 30 kts | 272° |
| 2026-05-09 04:59 | 52.42284 | 16.81258 | 290 ft | 21 kts | 253° |
| 2026-05-09 05:00 | 52.42246 | 16.81156 | 288 ft | 9 kts | 191° |
| 2026-05-09 05:00 | 52.42205 | 16.81221 | 288 ft | 9 kts | 109° |
| 2026-05-09 05:00 | 52.42187 | 16.81311 | 291 ft | 8 kts | 108° |
| 2026-05-09 05:00 | 52.42170 | 16.81391 | 292 ft | 7 kts | 108° |
| 2026-05-09 05:01 | 52.42157 | 16.81457 | 292 ft | 6 kts | 108° |
| 2026-05-09 05:01 | 52.42139 | 16.81549 | 291 ft | 13 kts | 107° |
| 2026-05-09 05:01 | 52.42107 | 16.81714 | 288 ft | 16 kts | 107° |
| 2026-05-09 05:01 | 52.42072 | 16.81899 | 288 ft | 18 kts | 107° |
| 2026-05-09 05:02 | 52.42035 | 16.82101 | 288 ft | 20 kts | 107° |
| 2026-05-09 05:02 | 52.41992 | 16.82324 | 289 ft | 22 kts | 109° |
| 2026-05-09 05:02 | 52.41941 | 16.82566 | 294 ft | 23 kts | 108° |
| 2026-05-09 05:02 | 52.41902 | 16.82772 | 288 ft | 14 kts | 107° |
| 2026-05-09 05:03 | 52.41851 | 16.82897 | 288 ft | 13 kts | 157° |
| 2026-05-09 05:03 | 52.41764 | 16.82872 | 292 ft | 13 kts | 198° |
| 2026-05-09 05:03 | 52.41684 | 16.82853 | 290 ft | 12 kts | 153° |
| 2026-05-09 05:03 | 52.41650 | 16.82962 | 288 ft | 10 kts | 104° |
| 2026-05-09 05:04 | 52.41635 | 16.83066 | 288 ft | 9 kts | 104° |
| 2026-05-09 05:04 | 52.41622 | 16.83155 | 288 ft | 7 kts | 101° |
| 2026-05-09 05:04 | 52.41613 | 16.83230 | 288 ft | 6 kts | 101° |
| 2026-05-09 05:04 | 52.41606 | 16.83292 | 288 ft | 5 kts | 101° |
| 2026-05-09 05:05 | 52.41587 | 16.83333 | 291 ft | 6 kts | 175° |
| 2026-05-09 05:05 | 52.41547 | 16.83324 | 288 ft | 3 kts | 189° |
| 2026-05-09 05:05 | 52.41539 | 16.83322 | 288 ft | 0 kts | 188° |